Time;durP1;ratioP1;P1;durP2;ratioP2;P2;SDS_P1;SDS_P2;PMS_P1;PMS_P2;Temp;Humidity;BMP_temperature;BMP_pressure;BME280_temperature;BME280_humidity;BME280_pressure;Samples;Min_cycle;Max_cycle;Signal;HPM_P1;HPM_P2
2022/06/09 00:01:55;;;;;;;6.47;1.40;;;;;;;;;;5048040;28;20064;-68
2022/06/09 00:04:23;;;;;;;9.55;1.60;;;;;;;;;;5048043;28;20052;-70
2022/06/09 00:06:51;;;;;;;3.60;1.43;;;;;;;;;;5041673;28;20053;-66
2022/06/09 00:09:19;;;;;;;3.78;1.10;;;;;;;;;;5064580;28;20063;-67
2022/06/09 00:11:47;;;;;;;5.93;1.63;;;;;;;;;;5042263;28;20095;-67
2022/06/09 00:14:16;;;;;;;5.15;1.42;;;;;;;;;;5047632;28;20053;-67
2022/06/09 00:16:43;;;;;;;10.23;2.15;;;;;;;;;;5042304;28;20144;-67
2022/06/09 00:19:10;;;;;;;9.20;1.48;;;;;;;;;;5031903;28;20166;-64
2022/06/09 00:21:37;;;;;;;8.15;1.85;;;;;;;;;;5041796;28;20064;-66
2022/06/09 00:24:05;;;;;;;4.68;1.30;;;;;;;;;;5046785;28;20057;-65
2022/06/09 00:26:32;;;;;;;3.45;1.40;;;;;;;;;;5041701;28;20040;-70
2022/06/09 00:28:59;;;;;;;8.30;2.08;;;;;;;;;;5047709;28;20056;-66
2022/06/09 00:31:27;;;;;;;5.30;1.52;;;;;;;;;;5042020;28;20052;-69
2022/06/09 00:33:54;;;;;;;5.45;1.85;;;;;;;;;;5064555;28;20057;-70
2022/06/09 00:36:20;;;;;;;9.68;1.73;;;;;;;;;;5059626;28;20040;-65
2022/06/09 00:38:47;;;;;;;9.35;2.00;;;;;;;;;;5046980;28;20045;-69
2022/06/09 00:41:14;;;;;;;7.70;1.95;;;;;;;;;;5041914;28;20138;-69
2022/06/09 00:43:41;;;;;;;7.85;1.85;;;;;;;;;;5063958;28;20085;-69
2022/06/09 00:46:12;;;;;;;8.95;1.75;;;;;;;;;;5047666;28;20055;-70
2022/06/09 00:48:43;;;;;;;7.43;1.83;;;;;;;;;;5062831;28;20045;-69
2022/06/09 00:51:19;;;;;;;6.65;1.20;;;;;;;;;;5048001;28;20045;-66
2022/06/09 00:53:46;;;;;;;8.48;1.77;;;;;;;;;;5043259;28;20049;-70
2022/06/09 00:56:14;;;;;;;5.57;1.25;;;;;;;;;;5048748;28;20053;-69
2022/06/09 00:58:42;;;;;;;8.60;1.70;;;;;;;;;;5041356;28;20045;-66
2022/06/09 01:01:09;;;;;;;;;;;;;;;;;;5046937;28;20111;-70
2022/06/09 01:03:37;;;;;;;2.03;1.20;;;;;;;;;;5057689;28;20025;-67
2022/06/09 01:06:08;;;;;;;7.90;2.08;;;;;;;;;;5047273;28;20059;-65
2022/06/09 01:08:36;;;;;;;5.93;1.85;;;;;;;;;;5041267;28;20087;-69
2022/06/09 01:11:03;;;;;;;4.32;1.83;;;;;;;;;;5046921;28;20053;-69
2022/06/09 01:13:31;;;;;;;7.43;1.85;;;;;;;;;;5040951;28;20059;-63
2022/06/09 01:16:01;;;;;;;9.43;2.77;;;;;;;;;;5045330;28;20079;-66
2022/06/09 01:18:35;;;;;;;5.05;1.15;;;;;;;;;;5041811;28;20048;-63
2022/06/09 01:21:06;;;;;;;3.67;1.40;;;;;;;;;;5046583;28;20056;-69
2022/06/09 01:23:59;;;;;;;3.88;1.60;;;;;;;;;;5039421;28;20110;-68
2022/06/09 01:26:44;;;;;;;6.93;1.38;;;;;;;;;;5002846;28;20053;-65
2022/06/09 01:29:22;;;;;;;9.63;2.08;;;;;;;;;;4996502;28;20148;-67
2022/06/09 01:31:51;;;;;;;6.00;1.48;;;;;;;;;;5046920;28;20041;-66
2022/06/09 01:34:20;;;;;;;7.70;1.63;;;;;;;;;;5040787;28;20080;-68
2022/06/09 01:36:48;;;;;;;4.43;1.58;;;;;;;;;;5046726;28;20053;-66
2022/06/09 01:39:14;;;;;;;6.63;1.50;;;;;;;;;;5061233;28;20064;-69
2022/06/09 01:41:48;;;;;;;3.72;1.20;;;;;;;;;;5066247;28;20353;-70
2022/06/09 01:44:16;;;;;;;3.80;1.00;;;;;;;;;;5062210;28;20045;-65
2022/06/09 01:46:45;;;;;;;5.05;1.08;;;;;;;;;;5050835;28;20056;-67
2022/06/09 01:49:11;;;;;;;;;;;;;;;;;;5045686;28;20053;-66
2022/06/09 01:51:42;;;;;;;3.45;1.23;;;;;;;;;;5050333;28;20007;-66
2022/06/09 01:54:10;;;;;;;4.30;1.13;;;;;;;;;;5045203;28;20057;-67
2022/06/09 01:56:41;;;;;;;7.60;1.60;;;;;;;;;;5050713;28;20049;-64
2022/06/09 01:59:09;;;;;;;3.13;1.35;;;;;;;;;;5045207;28;20157;-66
2022/06/09 02:01:37;;;;;;;2.80;1.15;;;;;;;;;;5049801;28;20056;-68
2022/06/09 02:04:11;;;;;;;5.05;1.40;;;;;;;;;;5049423;28;20056;-68
2022/06/09 02:06:38;;;;;;;7.65;1.80;;;;;;;;;;5047826;28;20055;-67
2022/06/09 02:09:06;;;;;;;3.55;1.25;;;;;;;;;;5049802;28;20084;-68
2022/06/09 02:11:32;;;;;;;8.13;2.33;;;;;;;;;;5022622;28;20053;-64
2022/06/09 02:13:59;;;;;;;4.18;1.73;;;;;;;;;;5046670;28;20041;-68
2022/06/09 02:16:26;;;;;;;6.05;2.15;;;;;;;;;;5041766;28;20045;-64
2022/06/09 02:18:55;;;;;;;6.57;1.27;;;;;;;;;;5030929;28;20049;-66
2022/06/09 02:21:23;;;;;;;2.80;1.13;;;;;;;;;;5025324;28;20041;-67
2022/06/09 02:23:50;;;;;;;;;;;;;;;;;;5030812;28;20054;-65
2022/06/09 02:26:18;;;;;;;3.85;1.13;;;;;;;;;;5024437;28;19929;-67
2022/06/09 02:28:45;;;;;;;2.70;1.17;;;;;;;;;;5030345;28;20038;-68
2022/06/09 02:31:11;;;;;;;4.82;1.42;;;;;;;;;;5025225;28;20053;-68
2022/06/09 02:33:38;;;;;;;8.43;1.23;;;;;;;;;;5048340;28;20053;-70
2022/06/09 02:36:05;;;;;;;3.17;1.55;;;;;;;;;;5041343;28;20057;-66
2022/06/09 02:38:31;;;;;;;6.95;1.25;;;;;;;;;;5045941;28;20056;-68
2022/06/09 02:40:58;;;;;;;4.32;1.30;;;;;;;;;;5040646;28;20069;-65
2022/06/09 02:43:26;;;;;;;4.45;1.00;;;;;;;;;;5046493;28;20132;-65
2022/06/09 02:45:53;;;;;;;3.47;1.00;;;;;;;;;;5042004;28;20057;-64
2022/06/09 02:48:20;;;;;;;5.28;1.25;;;;;;;;;;5028428;28;20057;-65
2022/06/09 02:50:47;;;;;;;1.75;1.17;;;;;;;;;;5045355;28;20057;-65
2022/06/09 02:53:14;;;;;;;3.15;1.05;;;;;;;;;;5039627;28;20115;-65
2022/06/09 02:55:41;;;;;;;5.05;1.30;;;;;;;;;;5046053;28;20060;-66
2022/06/09 02:58:08;;;;;;;2.75;1.20;;;;;;;;;;5040764;28;20065;-65
2022/06/09 03:00:37;;;;;;;4.03;1.45;;;;;;;;;;5034133;28;20053;-66
2022/06/09 03:03:06;;;;;;;6.88;1.85;;;;;;;;;;5043693;28;20068;-65
2022/06/09 03:05:33;;;;;;;6.80;1.80;;;;;;;;;;5049301;28;20060;-63
2022/06/09 03:08:00;;;;;;;8.73;1.98;;;;;;;;;;5044046;28;20053;-68
2022/06/09 03:10:27;;;;;;;8.90;1.70;;;;;;;;;;5048984;28;20060;-67
2022/06/09 03:12:54;;;;;;;2.15;0.82;;;;;;;;;;5043390;28;20072;-67
2022/06/09 03:15:23;;;;;;;4.00;1.42;;;;;;;;;;5048590;28;20057;-64
2022/06/09 03:17:51;;;;;;;8.43;1.52;;;;;;;;;;5043492;28;20071;-66
2022/06/09 03:20:19;;;;;;;4.70;1.40;;;;;;;;;;5065033;28;20064;-63
2022/06/09 03:22:47;;;;;;;9.45;1.77;;;;;;;;;;5041223;28;20080;-64
2022/06/09 03:25:14;;;;;;;4.07;1.13;;;;;;;;;;5039134;28;20049;-65
2022/06/09 03:27:41;;;;;;;3.40;1.23;;;;;;;;;;5040275;28;20046;-69
2022/06/09 03:30:08;;;;;;;6.07;1.20;;;;;;;;;;5038831;28;20079;-69
2022/06/09 03:32:35;;;;;;;8.90;1.00;;;;;;;;;;5048558;28;20136;-66
2022/06/09 03:35:04;;;;;;;3.83;1.25;;;;;;;;;;5043134;28;20125;-65
2022/06/09 03:37:30;;;;;;;10.25;1.45;;;;;;;;;;5047996;28;20052;-68
2022/06/09 03:39:57;;;;;;;6.53;1.40;;;;;;;;;;5030614;28;20089;-65
2022/06/09 03:42:24;;;;;;;1.67;1.00;;;;;;;;;;5039963;28;20049;-65
2022/06/09 03:44:50;;;;;;;5.60;1.27;;;;;;;;;;5043361;28;20068;-69
2022/06/09 03:47:17;;;;;;;4.10;1.23;;;;;;;;;;5048541;28;20052;-65
2022/06/09 03:49:44;;;;;;;3.58;1.45;;;;;;;;;;5042592;28;20118;-66
2022/06/09 03:52:12;;;;;;;1.73;1.13;;;;;;;;;;5036701;28;20051;-68
2022/06/09 03:54:38;;;;;;;7.65;1.77;;;;;;;;;;5022814;28;20049;-65
2022/06/09 03:57:06;;;;;;;4.45;1.40;;;;;;;;;;5041052;28;20045;-67
2022/06/09 03:59:32;;;;;;;5.82;1.60;;;;;;;;;;5043355;28;20111;-65
2022/06/09 04:01:59;;;;;;;7.85;1.52;;;;;;;;;;5032550;28;20064;-68
2022/06/09 04:04:25;;;;;;;13.88;1.90;;;;;;;;;;5022996;28;20041;-64
2022/06/09 04:06:52;;;;;;;3.40;1.17;;;;;;;;;;5045364;28;20058;-67
2022/06/09 04:09:20;;;;;;;4.05;1.13;;;;;;;;;;5041119;28;20057;-69
2022/06/09 04:11:47;;;;;;;8.90;1.90;;;;;;;;;;5027573;28;20061;-69
2022/06/09 04:14:14;;;;;;;9.38;1.73;;;;;;;;;;5027924;28;20049;-70
2022/06/09 04:16:44;;;;;;;10.57;1.83;;;;;;;;;;5040379;28;20060;-65
2022/06/09 04:19:11;;;;;;;8.75;1.63;;;;;;;;;;5027888;28;20054;-65
2022/06/09 04:21:38;;;;;;;4.57;1.45;;;;;;;;;;5038906;28;20111;-66
2022/06/09 04:24:05;;;;;;;6.38;1.58;;;;;;;;;;5043852;28;20058;-68
2022/06/09 04:26:35;;;;;;;2.72;1.13;;;;;;;;;;5021892;28;20060;-67
2022/06/09 04:29:01;;;;;;;8.55;1.95;;;;;;;;;;5062205;28;20053;-67
2022/06/09 04:31:28;;;;;;;6.32;1.63;;;;;;;;;;5057931;28;20072;-68
2022/06/09 04:33:54;;;;;;;4.60;1.35;;;;;;;;;;5047336;28;20060;-65
2022/06/09 04:36:21;;;;;;;2.28;1.00;;;;;;;;;;5041798;28;20056;-66
2022/06/09 04:38:48;;;;;;;8.30;1.45;;;;;;;;;;5047374;28;20056;-67
2022/06/09 04:41:15;;;;;;;5.50;1.35;;;;;;;;;;5041929;28;20057;-67
2022/06/09 04:43:46;;;;;;;11.65;1.75;;;;;;;;;;5028055;28;20068;-63
2022/06/09 04:46:14;;;;;;;3.42;1.13;;;;;;;;;;5021723;28;20100;-67
2022/06/09 04:48:41;;;;;;;1.85;1.10;;;;;;;;;;5045277;28;20064;-66
2022/06/09 04:51:08;;;;;;;14.88;4.82;;;;;;;;;;5040372;28;20053;-67
2022/06/09 04:53:36;;;;;;;14.95;4.55;;;;;;;;;;5030612;28;20061;-65
2022/06/09 04:56:03;;;;;;;3.50;1.53;;;;;;;;;;5059688;28;20059;-66
2022/06/09 04:58:29;;;;;;;8.73;1.63;;;;;;;;;;5049125;28;20191;-65
2022/06/09 05:00:57;;;;;;;6.68;1.88;;;;;;;;;;5048290;28;20080;-65
2022/06/09 05:03:24;;;;;;;7.50;1.70;;;;;;;;;;5060127;28;20055;-67
2022/06/09 05:05:51;;;;;;;5.18;1.80;;;;;;;;;;5065337;28;20048;-67
2022/06/09 05:08:18;;;;;;;4.53;1.60;;;;;;;;;;5043913;28;20080;-64
2022/06/09 05:10:46;;;;;;;8.18;1.50;;;;;;;;;;5065195;28;20061;-65
2022/06/09 05:13:13;;;;;;;11.73;1.85;;;;;;;;;;5060686;28;20079;-67
2022/06/09 05:15:44;;;;;;;8.40;1.77;;;;;;;;;;5047206;28;20076;-66
2022/06/09 05:18:12;;;;;;;4.15;1.30;;;;;;;;;;5039896;28;20052;-65
2022/06/09 05:20:39;;;;;;;6.82;1.33;;;;;;;;;;5048742;28;20056;-63
2022/06/09 05:23:05;;;;;;;8.40;1.90;;;;;;;;;;5041965;28;20164;-63
2022/06/09 05:25:32;;;;;;;6.93;1.45;;;;;;;;;;5048734;28;20049;-63
2022/06/09 05:27:59;;;;;;;6.53;1.92;;;;;;;;;;5054897;28;20049;-67
2022/06/09 05:30:26;;;;;;;13.27;5.38;;;;;;;;;;5044761;28;20049;-63
2022/06/09 05:32:53;;;;;;;15.57;6.53;;;;;;;;;;5039664;28;20061;-66
2022/06/09 05:35:22;;;;;;;12.68;2.03;;;;;;;;;;5029669;28;20104;-67
2022/06/09 05:46:06;;;;;;;4.70;1.38;;;;;;;;;;5048702;28;20060;-67
2022/06/09 05:48:32;;;;;;;3.88;1.58;;;;;;;;;;5042709;28;20053;-67
2022/06/09 05:51:01;;;;;;;5.78;1.60;;;;;;;;;;5048144;28;20056;-69
2022/06/09 05:53:28;;;;;;;4.28;1.60;;;;;;;;;;5041275;28;20057;-66
2022/06/09 05:55:54;;;;;;;3.72;1.25;;;;;;;;;;5063322;28;20059;-63
2022/06/09 05:58:21;;;;;;;8.90;1.20;;;;;;;;;;5058596;28;20073;-64
2022/06/09 06:00:48;;;;;;;3.28;1.23;;;;;;;;;;5061517;28;20057;-62
2022/06/09 06:03:15;;;;;;;5.78;1.55;;;;;;;;;;5045023;28;20041;-67
2022/06/09 06:08:27;;;;;;;4.35;1.27;;;;;;;;;;5061657;28;20056;-68
2022/06/09 06:10:54;;;;;;;3.58;1.30;;;;;;;;;;5040421;28;20048;-67
2022/06/09 06:13:21;;;;;;;4.55;1.35;;;;;;;;;;5063169;28;20045;-67
2022/06/09 06:15:48;;;;;;;3.17;1.40;;;;;;;;;;5040061;28;20068;-67
2022/06/09 06:18:14;;;;;;;7.13;1.73;;;;;;;;;;5046162;28;20049;-64
2022/06/09 06:20:41;;;;;;;5.97;1.75;;;;;;;;;;5040732;28;20056;-64
2022/06/09 06:23:08;;;;;;;6.63;1.30;;;;;;;;;;5045702;28;20051;-64
2022/06/09 06:25:36;;;;;;;2.70;1.35;;;;;;;;;;5042121;28;20075;-63
2022/06/09 06:28:03;;;;;;;3.33;1.08;;;;;;;;;;5049765;28;20041;-64
2022/06/09 06:30:29;;;;;;;5.10;1.25;;;;;;;;;;5043812;28;20061;-63
2022/06/09 06:32:56;;;;;;;2.50;1.08;;;;;;;;;;5049811;28;20061;-63
2022/06/09 06:35:23;;;;;;;5.57;1.30;;;;;;;;;;5043623;28;20104;-67
2022/06/09 06:37:49;;;;;;;4.22;1.38;;;;;;;;;;5049683;28;20052;-64
2022/06/09 06:40:16;;;;;;;6.25;1.30;;;;;;;;;;5042933;28;20071;-63
2022/06/09 06:42:46;;;;;;;10.07;3.38;;;;;;;;;;5065348;28;20061;-68
2022/06/09 06:45:13;;;;;;;8.50;3.53;;;;;;;;;;5045417;28;20060;-64
2022/06/09 06:47:39;;;;;;;4.00;1.20;;;;;;;;;;5046454;28;20068;-67
2022/06/09 06:50:07;;;;;;;4.30;1.20;;;;;;;;;;5046462;28;20071;-67
2022/06/09 06:52:34;;;;;;;3.05;1.10;;;;;;;;;;5043373;28;20045;-64
2022/06/09 06:55:00;;;;;;;3.30;1.33;;;;;;;;;;5048927;28;20150;-66
2022/06/09 06:57:27;;;;;;;8.52;1.20;;;;;;;;;;5043470;28;20057;-65
2022/06/09 06:59:55;;;;;;;4.70;1.35;;;;;;;;;;5049086;28;20045;-64
2022/06/09 07:02:25;;;;;;;4.65;1.33;;;;;;;;;;4990945;28;20086;-65
2022/06/09 07:04:51;;;;;;;7.03;1.25;;;;;;;;;;4989929;28;20050;-68
2022/06/09 07:07:18;;;;;;;6.35;1.55;;;;;;;;;;4995861;28;20050;-65
2022/06/09 07:09:45;;;;;;;4.05;1.20;;;;;;;;;;5010504;28;20108;-67
2022/06/09 07:12:12;;;;;;;3.65;1.40;;;;;;;;;;5003410;28;20045;-67
2022/06/09 07:14:38;;;;;;;5.60;1.40;;;;;;;;;;5009890;28;20049;-65
2022/06/09 07:17:06;;;;;;;5.82;1.05;;;;;;;;;;5003475;28;20053;-63
2022/06/09 07:19:33;;;;;;;4.03;1.10;;;;;;;;;;5008435;28;20100;-66
2022/06/09 07:22:00;;;;;;;8.05;1.10;;;;;;;;;;5002322;28;20054;-66
2022/06/09 07:24:26;;;;;;;1.55;0.93;;;;;;;;;;5008649;28;20140;-67
2022/06/09 07:26:53;;;;;;;3.90;1.02;;;;;;;;;;5004589;28;20056;-64
2022/06/09 07:29:21;;;;;;;7.82;1.40;;;;;;;;;;5008434;28;20053;-63
2022/06/09 07:31:49;;;;;;;2.97;1.15;;;;;;;;;;5009013;28;20041;-64
2022/06/09 07:34:17;;;;;;;6.22;1.30;;;;;;;;;;5003757;28;20141;-62
2022/06/09 07:36:44;;;;;;;5.28;1.08;;;;;;;;;;5009637;28;20050;-64
2022/06/09 07:39:11;;;;;;;4.88;1.10;;;;;;;;;;5020758;28;20068;-65
2022/06/09 07:41:37;;;;;;;7.60;1.60;;;;;;;;;;5008037;28;20084;-65
2022/06/09 07:44:06;;;;;;;4.43;1.27;;;;;;;;;;5003839;28;20046;-65
2022/06/09 07:46:32;;;;;;;;;;;;;;;;;;5009522;28;20050;-64
2022/06/09 07:48:59;;;;;;;7.22;1.33;;;;;;;;;;5020100;28;20031;-64
2022/06/09 07:51:28;;;;;;;3.70;1.38;;;;;;;;;;5008801;28;20049;-64
2022/06/09 07:53:55;;;;;;;7.20;1.75;;;;;;;;;;5003167;28;20068;-65
2022/06/09 07:56:21;;;;;;;8.27;1.70;;;;;;;;;;5008519;28;20050;-63
2022/06/09 07:58:48;;;;;;;5.13;1.30;;;;;;;;;;5002889;28;20061;-62
2022/06/09 08:01:17;;;;;;;4.05;1.58;;;;;;;;;;5046675;28;20089;-63
2022/06/09 08:03:43;;;;;;;;;;;;;;;;;;5059228;28;20045;-66
2022/06/09 08:06:11;;;;;;;6.15;1.70;;;;;;;;;;5048541;28;20024;-62
2022/06/09 08:08:39;;;;;;;6.57;1.52;;;;;;;;;;5041982;28;20053;-63
2022/06/09 08:11:07;;;;;;;3.22;1.17;;;;;;;;;;5047002;28;20108;-63
2022/06/09 08:13:34;;;;;;;3.78;1.40;;;;;;;;;;5044217;28;20059;-63
2022/06/09 08:16:01;;;;;;;7.07;1.55;;;;;;;;;;5040286;28;20048;-63
2022/06/09 08:18:28;;;;;;;6.35;1.90;;;;;;;;;;5047848;28;20147;-63
2022/06/09 08:20:56;;;;;;;7.90;2.60;;;;;;;;;;5057775;28;20084;-63
2022/06/09 08:23:23;;;;;;;5.22;1.45;;;;;;;;;;5063418;28;20106;-64
2022/06/09 08:25:53;;;;;;;8.00;0.97;;;;;;;;;;5041662;28;20072;-64
2022/06/09 08:28:20;;;;;;;5.72;1.00;;;;;;;;;;5047956;28;20371;-63
2022/06/09 08:30:47;;;;;;;3.58;1.05;;;;;;;;;;5041237;28;20063;-62
2022/06/09 08:33:14;;;;;;;3.92;1.15;;;;;;;;;;5047207;28;20075;-65
2022/06/09 08:35:41;;;;;;;3.58;0.90;;;;;;;;;;5042108;28;20052;-64
2022/06/09 08:38:08;;;;;;;3.38;1.00;;;;;;;;;;5063420;28;20048;-64
2022/06/09 08:40:42;;;;;;;3.63;0.90;;;;;;;;;;5058370;28;20114;-64
2022/06/09 08:43:18;;;;;;;4.05;1.00;;;;;;;;;;5045528;28;20053;-63
2022/06/09 08:45:46;;;;;;;2.33;1.00;;;;;;;;;;5042665;28;20055;-64
2022/06/09 08:48:15;;;;;;;2.80;1.00;;;;;;;;;;5048299;28;20041;-65
2022/06/09 08:50:43;;;;;;;10.15;1.80;;;;;;;;;;5041324;28;20057;-63
2022/06/09 08:53:14;;;;;;;4.30;1.60;;;;;;;;;;5047327;28;20074;-63
2022/06/09 08:55:43;;;;;;;3.10;1.17;;;;;;;;;;5041400;28;20055;-62
2022/06/09 08:58:18;;;;;;;5.20;1.40;;;;;;;;;;5047265;28;20053;-62
2022/06/09 09:00:46;;;;;;;6.60;1.63;;;;;;;;;;5042104;28;20099;-63
2022/06/09 09:03:17;;;;;;;8.27;1.48;;;;;;;;;;5047296;28;20098;-62
2022/06/09 09:05:45;;;;;;;6.18;1.70;;;;;;;;;;5041640;28;20056;-62
2022/06/09 09:08:13;;;;;;;4.68;1.52;;;;;;;;;;5062557;28;20060;-65
2022/06/09 09:10:51;;;;;;;7.13;1.92;;;;;;;;;;5047623;28;20091;-63
2022/06/09 09:13:31;;;;;;;4.25;1.55;;;;;;;;;;5027636;28;20045;-63
2022/06/09 09:15:59;;;;;;;3.63;1.67;;;;;;;;;;5027374;28;20053;-62
2022/06/09 09:18:35;;;;;;;3.20;1.35;;;;;;;;;;5061611;28;20063;-63
2022/06/09 09:21:16;;;;;;;7.35;2.40;;;;;;;;;;5046649;28;20154;-63
2022/06/09 09:23:48;;;;;;;4.95;1.80;;;;;;;;;;5038389;28;20045;-63
2022/06/09 09:26:17;;;;;;;10.50;1.80;;;;;;;;;;5048283;28;20045;-64
2022/06/09 09:28:47;;;;;;;5.47;1.45;;;;;;;;;;5041584;28;20063;-63
2022/06/09 09:31:21;;;;;;;9.45;2.40;;;;;;;;;;5046663;28;20049;-63
2022/06/09 09:33:47;;;;;;;4.55;1.98;;;;;;;;;;5041883;28;20049;-64
2022/06/09 09:36:18;;;;;;;5.40;1.63;;;;;;;;;;5044986;28;20052;-63
2022/06/09 09:38:48;;;;;;;8.32;1.60;;;;;;;;;;5058641;28;20135;-63
2022/06/09 09:41:26;;;;;;;9.65;1.85;;;;;;;;;;5046528;28;20053;-64
2022/06/09 09:43:55;;;;;;;8.63;1.70;;;;;;;;;;5058381;28;20061;-63
2022/06/09 09:46:26;;;;;;;9.30;3.30;;;;;;;;;;5046775;28;20140;-62
2022/06/09 09:48:56;;;;;;;12.73;4.50;;;;;;;;;;5040693;28;20127;-63
2022/06/09 09:51:31;;;;;;;10.80;2.15;;;;;;;;;;5045759;28;20111;-64
2022/06/09 09:53:58;;;;;;;5.07;2.03;;;;;;;;;;5040734;28;20049;-63
2022/06/09 09:56:29;;;;;;;9.15;1.90;;;;;;;;;;5046196;28;20140;-63
2022/06/09 09:58:58;;;;;;;3.10;1.80;;;;;;;;;;5040323;28;20049;-62
2022/06/09 10:01:30;;;;;;;7.03;1.60;;;;;;;;;;5049327;28;20062;-63
2022/06/09 10:09:29;;;;;;;5.93;1.45;;;;;;;;;;5045077;28;20079;-63
2022/06/09 10:11:59;;;;;;;7.77;1.80;;;;;;;;;;5049840;28;20092;-63
2022/06/09 10:14:32;;;;;;;4.05;1.23;;;;;;;;;;5044617;28;20064;-63
2022/06/09 10:16:59;;;;;;;5.93;1.60;;;;;;;;;;5050022;28;20053;-64
2022/06/09 10:19:27;;;;;;;3.08;1.45;;;;;;;;;;5045038;28;20107;-63
2022/06/09 10:21:55;;;;;;;7.60;1.95;;;;;;;;;;5049761;28;20084;-64
2022/06/09 10:24:24;;;;;;;5.70;2.23;;;;;;;;;;5044740;28;20064;-63
2022/06/09 10:26:55;;;;;;;5.70;1.70;;;;;;;;;;5050144;28;20137;-63
2022/06/09 10:29:25;;;;;;;6.32;1.27;;;;;;;;;;5045057;28;20164;-65
2022/06/09 10:31:59;;;;;;;6.13;1.25;;;;;;;;;;5038917;28;20053;-63
2022/06/09 10:34:33;;;;;;;5.68;1.40;;;;;;;;;;5044216;28;20041;-63
2022/06/09 10:37:02;;;;;;;8.07;1.50;;;;;;;;;;5050220;28;20056;-63
2022/06/09 10:39:34;;;;;;;7.60;1.70;;;;;;;;;;5044370;28;20060;-63
2022/06/09 10:42:03;;;;;;;7.55;1.85;;;;;;;;;;5049810;28;20137;-62
2022/06/09 10:44:33;;;;;;;7.18;1.45;;;;;;;;;;5045077;28;20044;-63
2022/06/09 10:55:30;;;;;;;9.02;1.27;;;;;;;;;;5044433;28;20180;-64
2022/06/09 10:57:58;;;;;;;3.53;1.05;;;;;;;;;;5050051;28;20061;-63
2022/06/09 11:00:28;;;;;;;5.43;1.05;;;;;;;;;;5043696;28;20068;-63
2022/06/09 11:02:58;;;;;;;6.50;1.55;;;;;;;;;;5049496;28;20060;-63
2022/06/09 11:05:31;;;;;;;6.05;1.20;;;;;;;;;;5044139;28;20061;-63
2022/06/09 11:08:05;;;;;;;5.18;1.15;;;;;;;;;;5050700;28;20056;-63
2022/06/09 11:10:38;;;;;;;3.88;1.73;;;;;;;;;;5044654;28;20171;-63
2022/06/09 11:13:19;;;;;;;6.32;1.10;;;;;;;;;;5029926;28;20061;-63
2022/06/09 11:15:50;;;;;;;2.78;0.90;;;;;;;;;;5022833;28;20072;-63
2022/06/09 11:18:24;;;;;;;4.28;1.00;;;;;;;;;;5048932;28;20053;-63
2022/06/09 11:20:59;;;;;;;3.50;1.20;;;;;;;;;;5045300;28;20056;-64
2022/06/09 11:23:32;;;;;;;7.60;0.90;;;;;;;;;;5054550;28;20053;-63
2022/06/09 11:26:02;;;;;;;3.33;1.15;;;;;;;;;;5048610;28;20069;-63
2022/06/09 11:28:35;;;;;;;2.30;0.80;;;;;;;;;;5063541;28;20072;-63
2022/06/09 11:31:13;;;;;;;6.63;1.00;;;;;;;;;;5049096;28;20052;-63
2022/06/09 11:34:04;;;;;;;4.68;0.93;;;;;;;;;;5062800;28;20048;-63
2022/06/09 11:36:35;;;;;;;3.60;1.17;;;;;;;;;;5024088;28;20055;-64
2022/06/09 11:39:08;;;;;;;4.30;1.30;;;;;;;;;;5048665;28;20110;-63
2022/06/09 11:41:39;;;;;;;7.32;1.30;;;;;;;;;;5047938;28;20056;-63
2022/06/09 11:44:09;;;;;;;3.97;0.93;;;;;;;;;;5047140;28;20053;-63
2022/06/09 11:46:37;;;;;;;5.20;1.13;;;;;;;;;;5047462;28;20071;-63
2022/06/09 11:49:06;;;;;;;3.55;1.00;;;;;;;;;;5043128;28;20057;-64
2022/06/09 11:51:35;;;;;;;5.47;1.17;;;;;;;;;;5047939;28;20059;-63
2022/06/09 11:54:02;;;;;;;6.45;1.65;;;;;;;;;;5041125;28;20067;-63
2022/06/09 11:56:44;;;;;;;2.67;0.80;;;;;;;;;;5048074;28;20037;-63
2022/06/09 11:59:21;;;;;;;6.63;1.08;;;;;;;;;;5041943;28;20085;-63
2022/06/09 12:01:58;;;;;;;4.82;0.90;;;;;;;;;;5046068;28;20089;-63
2022/06/09 12:04:30;;;;;;;5.70;1.20;;;;;;;;;;5059443;28;20052;-63
2022/06/09 12:07:09;;;;;;;9.15;1.20;;;;;;;;;;5048349;28;20045;-63
2022/06/09 12:09:43;;;;;;;4.35;0.90;;;;;;;;;;5042526;28;20130;-63
2022/06/09 12:12:27;;;;;;;5.13;1.02;;;;;;;;;;5048750;28;20052;-63
2022/06/09 12:15:08;;;;;;;4.72;1.25;;;;;;;;;;5042653;28;20063;-63
2022/06/09 12:17:36;;;;;;;7.63;1.63;;;;;;;;;;5047224;28;20053;-63
2022/06/09 12:20:08;;;;;;;5.38;0.77;;;;;;;;;;5042016;28;20056;-63
2022/06/09 12:22:48;;;;;;;4.38;1.10;;;;;;;;;;5047522;28;20049;-63
2022/06/09 12:25:32;;;;;;;4.22;1.13;;;;;;;;;;5026829;28;20105;-64
2022/06/09 12:27:58;;;;;;;4.95;1.10;;;;;;;;;;5046014;28;20056;-63
2022/06/09 12:30:31;;;;;;;2.38;0.90;;;;;;;;;;5058453;28;20053;-63
2022/06/09 12:33:18;;;;;;;6.00;1.20;;;;;;;;;;5064058;28;20057;-64
2022/06/09 12:35:48;;;;;;;4.53;1.00;;;;;;;;;;5058566;28;20048;-64
2022/06/09 12:38:21;;;;;;;6.18;1.27;;;;;;;;;;5065039;28;20075;-64
2022/06/09 12:40:51;;;;;;;7.05;1.40;;;;;;;;;;5035560;28;20046;-64
2022/06/09 12:43:25;;;;;;;5.45;1.20;;;;;;;;;;5028117;28;20057;-64
2022/06/09 12:46:22;;;;;;;8.38;1.30;;;;;;;;;;5022488;28;20141;-64
2022/06/09 12:48:49;;;;;;;5.07;1.10;;;;;;;;;;4968655;28;20054;-64
2022/06/09 12:51:21;;;;;;;7.18;0.73;;;;;;;;;;5003642;28;20049;-64
2022/06/09 12:54:01;;;;;;;10.52;1.20;;;;;;;;;;5028339;28;20045;-64
2022/06/09 12:56:35;;;;;;;6.00;1.00;;;;;;;;;;5022122;28;20049;-64
2022/06/09 12:59:06;;;;;;;4.22;1.05;;;;;;;;;;5027381;28;20053;-64
2022/06/09 13:01:33;;;;;;;5.65;0.98;;;;;;;;;;5037118;28;20068;-65
2022/06/09 13:04:01;;;;;;;6.22;1.17;;;;;;;;;;5047632;28;20053;-64
2022/06/09 13:06:29;;;;;;;6.13;1.10;;;;;;;;;;5042103;28;20053;-64
2022/06/09 13:08:58;;;;;;;5.25;1.30;;;;;;;;;;5045153;28;20052;-64
2022/06/09 13:12:50;;;;;;;;;;;;;;;;;;5041729;28;20041;-64
2022/06/09 13:14:15;;;;;;;4.13;1.13;;;;;;;;;;5047300;28;20035;-64
2022/06/09 13:16:44;;;;;;;7.13;1.20;;;;;;;;;;5041902;28;20053;-64
2022/06/09 13:19:11;;;;;;;5.68;0.90;;;;;;;;;;5047286;28;20057;-64
2022/06/09 13:21:39;;;;;;;6.18;1.20;;;;;;;;;;5041777;28;20056;-64
2022/06/09 13:24:07;;;;;;;3.53;1.00;;;;;;;;;;5046983;28;20059;-64
2022/06/09 13:26:34;;;;;;;;;;;;;;;;;;5058114;28;20303;-64
2022/06/09 13:29:02;;;;;;;7.85;1.33;;;;;;;;;;5063511;28;19921;-64
2022/06/09 13:31:36;;;;;;;5.18;1.25;;;;;;;;;;5041149;28;20053;-65
2022/06/09 13:34:04;;;;;;;5.85;1.20;;;;;;;;;;5047794;28;20056;-64
2022/06/09 13:36:33;;;;;;;9.20;1.50;;;;;;;;;;5045190;28;20051;-64
2022/06/09 13:39:20;;;;;;;5.88;1.13;;;;;;;;;;5051265;28;20052;-65
2022/06/09 13:41:49;;;;;;;6.50;1.30;;;;;;;;;;5044486;28;20056;-64
2022/06/09 13:44:17;;;;;;;4.82;1.10;;;;;;;;;;5050722;28;20065;-64
2022/06/09 13:46:56;;;;;;;7.70;1.52;;;;;;;;;;5045850;28;20052;-64
2022/06/09 13:49:25;;;;;;;9.98;3.42;;;;;;;;;;5051125;28;20051;-64
2022/06/09 13:51:59;;;;;;;4.43;1.73;;;;;;;;;;5045498;28;20052;-64
2022/06/09 13:54:30;;;;;;;6.63;1.48;;;;;;;;;;5067756;28;20059;-64
2022/06/09 13:56:57;;;;;;;6.43;1.27;;;;;;;;;;5044760;28;20073;-64
2022/06/09 13:59:25;;;;;;;6.18;1.27;;;;;;;;;;5049276;28;20057;-64
2022/06/09 14:01:55;;;;;;;7.95;1.00;;;;;;;;;;5067651;28;20077;-64
2022/06/09 14:04:23;;;;;;;7.00;0.98;;;;;;;;;;5046317;28;20057;-64
2022/06/09 14:06:50;;;;;;;5.35;1.00;;;;;;;;;;5052018;28;20055;-64
2022/06/09 14:09:17;;;;;;;7.40;1.80;;;;;;;;;;5045571;28;20052;-64
2022/06/09 14:11:45;;;;;;;4.30;1.00;;;;;;;;;;5050080;28;20057;-64
2022/06/09 14:14:11;;;;;;;7.75;1.70;;;;;;;;;;5042946;28;20057;-64
2022/06/09 14:16:42;;;;;;;4.65;1.10;;;;;;;;;;5051177;28;20057;-64
2022/06/09 14:19:12;;;;;;;6.07;1.00;;;;;;;;;;5045991;28;20128;-64
2022/06/09 14:21:38;;;;;;;7.78;1.35;;;;;;;;;;5052281;28;20051;-63
2022/06/09 14:24:18;;;;;;;6.13;1.40;;;;;;;;;;5046344;28;20048;-64
2022/06/09 14:26:45;;;;;;;5.75;1.38;;;;;;;;;;5052681;28;20143;-64
2022/06/09 14:29:13;;;;;;;6.97;1.50;;;;;;;;;;5041785;28;20083;-64
2022/06/09 14:31:40;;;;;;;4.47;1.23;;;;;;;;;;5031959;28;20099;-64
2022/06/09 14:34:06;;;;;;;4.88;1.42;;;;;;;;;;5030290;28;20063;-65
2022/06/09 14:36:35;;;;;;;10.98;1.35;;;;;;;;;;5050585;28;20052;-64
2022/06/09 14:39:01;;;;;;;;;;;;;;;;;;5046431;28;20139;-64
2022/06/09 14:41:28;;;;;;;6.55;1.00;;;;;;;;;;5050254;28;19925;-64
2022/06/09 14:43:56;;;;;;;13.50;1.52;;;;;;;;;;5044571;28;20057;-64
2022/06/09 14:46:26;;;;;;;5.03;1.60;;;;;;;;;;5066191;28;20057;-65
2022/06/09 14:48:53;;;;;;;7.97;1.52;;;;;;;;;;5049993;28;20092;-65
2022/06/09 14:51:20;;;;;;;4.18;1.20;;;;;;;;;;5045244;28;20069;-64
2022/06/09 14:53:48;;;;;;;7.30;1.27;;;;;;;;;;5040439;28;20072;-64
2022/06/09 14:56:15;;;;;;;3.38;1.20;;;;;;;;;;5024777;28;20057;-64
2022/06/09 14:58:44;;;;;;;7.90;1.50;;;;;;;;;;5031361;28;20053;-64
2022/06/09 15:01:13;;;;;;;7.30;1.23;;;;;;;;;;5034474;28;20064;-64
2022/06/09 15:03:40;;;;;;;;;;;;;;;;;;5052036;28;20049;-64
2022/06/09 15:06:06;;;;;;;9.30;1.30;;;;;;;;;;5047643;28;19924;-63
2022/06/09 15:08:33;;;;;;;4.50;1.10;;;;;;;;;;5053170;28;20049;-64
2022/06/09 15:11:01;;;;;;;11.32;1.80;;;;;;;;;;5045547;28;20045;-64
2022/06/09 15:13:28;;;;;;;5.95;1.23;;;;;;;;;;5052570;28;20059;-65
2022/06/09 15:16:01;;;;;;;5.45;1.40;;;;;;;;;;5046322;28;20068;-64
2022/06/09 15:18:28;;;;;;;5.20;0.93;;;;;;;;;;5053210;28;20144;-65
2022/06/09 15:20:55;;;;;;;6.20;1.27;;;;;;;;;;5062343;28;20061;-63
2022/06/09 15:23:22;;;;;;;5.60;1.15;;;;;;;;;;5056871;28;20064;-64